Time;durP1;ratioP1;P1;durP2;ratioP2;P2;SDS_P1;SDS_P2;PMS_P1;PMS_P2;Temp;Humidity;BMP_temperature;BMP_pressure;BME280_temperature;BME280_humidity;BME280_pressure;Samples;Min_cycle;Max_cycle;Signal;HPM_P1;HPM_P2
2022/06/09 00:00:42;;;;;;;5.18;2.10;;;;;;;21.39;75.01;100965.84;5073880;28;20045;-71
2022/06/09 00:03:13;;;;;;;;;;;;;;;21.28;75.51;100956.03;5075550;28;20076;-72
2022/06/09 00:05:40;;;;;;;3.47;1.38;;;;;;;21.25;74.95;100956.72;5074146;28;19955;-73
2022/06/09 00:08:08;;;;;;;4.30;1.67;;;;;;;21.24;74.81;100955.06;5073830;28;20084;-72
2022/06/09 00:10:40;;;;;;;6.80;2.33;;;;;;;21.24;74.74;100957.91;5073800;28;20140;-73
2022/06/09 00:13:07;;;;;;;2.83;1.90;;;;;;;21.10;75.06;100943.94;5073671;28;20132;-74
2022/06/09 00:15:35;;;;;;;6.03;2.08;;;;;;;21.19;74.63;100958.91;5073622;28;20088;-72
2022/06/09 00:18:02;;;;;;;4.38;2.15;;;;;;;21.20;74.97;100957.75;5072462;28;20052;-73
2022/06/09 00:20:29;;;;;;;5.60;2.20;;;;;;;21.14;74.87;100952.59;5074257;28;20082;-72
2022/06/09 00:22:56;;;;;;;3.33;2.10;;;;;;;21.13;74.78;100950.91;5073385;28;20131;-72
2022/06/09 00:25:24;;;;;;;9.63;2.47;;;;;;;21.10;74.72;100954.47;5073471;28;20095;-72
2022/06/09 00:27:50;;;;;;;3.53;1.85;;;;;;;20.88;75.10;100916.63;5072184;28;20139;-72
2022/06/09 00:30:17;;;;;;;4.03;2.10;;;;;;;20.94;75.02;100918.13;5072453;28;20053;-72
2022/06/09 00:32:45;;;;;;;3.85;1.92;;;;;;;21.08;74.92;100929.25;5073509;28;20083;-71
2022/06/09 00:35:13;;;;;;;5.78;2.05;;;;;;;21.21;74.64;100950.06;5073173;28;20131;-72
2022/06/09 00:37:40;;;;;;;3.97;1.98;;;;;;;21.23;74.20;100947.69;5079894;28;20074;-72
2022/06/09 00:40:10;;;;;;;4.13;1.83;;;;;;;21.19;74.32;100941.84;5072233;28;20494;-72
2022/06/09 00:42:37;;;;;;;4.72;2.08;;;;;;;21.06;74.69;100935.28;5073430;28;20052;-73
2022/06/09 00:45:24;;;;;;;4.50;1.95;;;;;;;21.25;74.46;100933.97;5073157;28;20087;-72
2022/06/09 00:47:58;;;;;;;6.47;2.40;;;;;;;21.25;74.18;100939.66;5073114;28;20467;-72
2022/06/09 00:50:28;;;;;;;4.68;2.13;;;;;;;21.19;74.30;100929.66;5073297;28;20087;-72
2022/06/09 00:53:01;;;;;;;3.67;1.92;;;;;;;21.32;73.86;100934.28;5073485;28;20135;-73
2022/06/09 00:55:32;;;;;;;4.43;1.70;;;;;;;21.29;73.54;100923.59;5072917;28;20052;-72
2022/06/09 00:58:06;;;;;;;5.78;1.80;;;;;;;21.19;73.75;100898.44;5073013;28;20056;-72
2022/06/09 01:00:56;;;;;;;5.22;1.77;;;;;;;21.15;73.81;100921.00;5072907;28;20527;-72
2022/06/09 01:03:30;;;;;;;5.00;2.00;;;;;;;21.19;73.86;100921.16;5073033;28;20051;-72
2022/06/09 01:06:09;;;;;;;6.85;2.50;;;;;;;21.00;73.67;100881.84;5073383;28;20076;-72
2022/06/09 01:08:44;;;;;;;4.40;2.13;;;;;;;21.28;73.34;100913.41;5084122;28;20082;-72
2022/06/09 01:11:11;;;;;;;5.85;1.98;;;;;;;21.29;73.47;100907.38;5077019;28;20048;-72
2022/06/09 01:13:38;;;;;;;4.57;2.28;;;;;;;21.39;73.33;100917.53;5072687;28;20091;-71
2022/06/09 01:16:25;;;;;;;3.92;1.95;;;;;;;21.36;73.40;100917.41;5072697;28;20098;-72
2022/06/09 01:19:16;;;;;;;3.75;1.85;;;;;;;21.36;73.13;100918.22;5072942;28;20080;-72
2022/06/09 01:22:09;;;;;;;4.35;2.30;;;;;;;21.31;73.04;100907.03;5076280;28;20053;-71
2022/06/09 01:24:39;;;;;;;7.25;2.60;;;;;;;21.29;72.60;100917.91;5076304;28;20079;-72
2022/06/09 01:27:13;;;;;;;;;;;;;;;21.19;73.32;100910.63;5077736;28;20052;-72
2022/06/09 01:29:59;;;;;;;4.47;2.20;;;;;;;21.23;72.86;100913.59;5076734;28;19920;-72
2022/06/09 01:32:33;;;;;;;6.05;2.30;;;;;;;21.16;72.93;100917.00;5076702;28;20483;-72
2022/06/09 01:35:27;;;;;;;4.60;2.22;;;;;;;21.06;72.88;100912.56;5076422;28;20080;-72
2022/06/09 01:37:59;;;;;;;5.63;2.80;;;;;;;21.12;73.08;100907.50;5076229;28;20080;-72
2022/06/09 01:40:28;;;;;;;5.13;2.65;;;;;;;21.26;73.05;100893.03;5074069;28;20136;-72
2022/06/09 01:42:57;;;;;;;8.18;2.72;;;;;;;21.45;72.65;100892.59;5071326;28;20295;-71
2022/06/09 01:45:47;;;;;;;7.60;3.30;;;;;;;21.50;72.28;100901.75;5073234;28;20148;-72
2022/06/09 01:48:17;;;;;;;6.03;2.70;;;;;;;21.46;71.90;100889.41;5067228;28;20368;-72
2022/06/09 01:50:47;;;;;;;6.22;3.13;;;;;;;21.41;71.89;100886.78;5072664;28;20526;-71
2022/06/09 01:53:23;;;;;;;8.23;2.88;;;;;;;21.31;72.24;100895.69;5072376;28;20084;-71
2022/06/09 01:55:56;;;;;;;6.30;2.38;;;;;;;21.26;72.07;100881.66;5072764;28;20076;-72
2022/06/09 01:58:29;;;;;;;5.03;3.03;;;;;;;21.16;72.12;100868.72;5073621;28;20601;-72
2022/06/09 02:00:58;;;;;;;8.73;3.17;;;;;;;21.15;72.10;100867.03;5075793;28;20127;-73
2022/06/09 02:03:31;;;;;;;5.00;2.83;;;;;;;21.04;72.09;100855.25;5058291;28;20055;-71
2022/06/09 02:06:00;;;;;;;4.95;2.80;;;;;;;21.11;72.07;100859.56;5076146;28;20136;-71
2022/06/09 02:08:29;;;;;;;9.70;3.20;;;;;;;21.20;71.89;100877.41;5076519;28;20087;-72
2022/06/09 02:10:59;;;;;;;6.53;2.65;;;;;;;21.20;71.56;100861.19;5076287;28;20052;-71
2022/06/09 02:13:28;;;;;;;;;;;;;;;21.15;72.51;100877.59;5076654;28;20106;-72
2022/06/09 02:16:01;;;;;;;6.05;2.30;;;;;;;21.20;71.88;100878.22;5076332;28;19920;-71
2022/06/09 02:18:31;;;;;;;6.53;2.83;;;;;;;21.18;71.92;100879.72;5077330;28;20049;-71
2022/06/09 02:21:05;;;;;;;8.98;2.50;;;;;;;21.23;72.19;100874.69;5076804;28;20479;-72
2022/06/09 02:23:33;;;;;;;6.78;2.72;;;;;;;21.23;71.91;100874.69;5076594;28;20118;-72
2022/06/09 02:26:00;;;;;;;7.95;2.50;;;;;;;21.06;71.89;100866.28;5076298;28;20087;-72
2022/06/09 02:28:27;;;;;;;5.47;3.40;;;;;;;20.95;72.34;100857.31;5082167;28;20052;-72
2022/06/09 02:30:54;;;;;;;5.53;3.38;;;;;;;21.01;72.50;100849.44;5075742;28;20056;-71
2022/06/09 02:33:21;;;;;;;6.28;3.47;;;;;;;21.04;72.08;100860.94;5098975;28;20040;-71
2022/06/09 02:35:50;;;;;;;7.65;3.47;;;;;;;21.06;72.14;100854.94;5085625;28;20123;-72
2022/06/09 02:38:18;;;;;;;7.00;3.95;;;;;;;21.04;71.79;100855.25;5076761;28;20135;-72
2022/06/09 02:40:45;;;;;;;6.97;3.20;;;;;;;21.15;72.04;100867.03;5094566;28;20067;-72
2022/06/09 02:43:13;;;;;;;4.15;2.80;;;;;;;21.07;71.88;100853.75;5082692;28;20484;-71
2022/06/09 02:45:41;;;;;;;7.28;3.28;;;;;;;21.10;71.84;100852.25;5097029;28;20075;-71
2022/06/09 02:48:09;;;;;;;6.25;2.72;;;;;;;21.18;72.00;100849.31;5084401;28;20174;-71
2022/06/09 02:50:36;;;;;;;5.07;2.65;;;;;;;21.24;71.80;100844.28;5075553;28;20594;-72
2022/06/09 02:53:03;;;;;;;7.72;3.00;;;;;;;21.29;71.23;100844.06;5090098;28;20087;-72
2022/06/09 02:55:31;;;;;;;5.05;2.63;;;;;;;21.36;71.37;100850.03;5096033;28;20388;-72
2022/06/09 02:57:58;;;;;;;5.20;2.72;;;;;;;21.35;71.48;100856.91;5095579;28;20139;-72
2022/06/09 03:00:26;;;;;;;5.63;3.00;;;;;;;21.30;71.36;100834.38;5095922;28;20139;-72
2022/06/09 03:02:57;;;;;;;5.03;2.70;;;;;;;21.56;71.01;100853.22;5095782;28;20502;-71
2022/06/09 03:05:25;;;;;;;6.18;2.97;;;;;;;21.53;70.70;100846.22;5095037;28;20491;-71
2022/06/09 03:07:52;;;;;;;4.55;2.50;;;;;;;21.34;71.00;100817.47;5095455;28;20083;-72
2022/06/09 03:10:20;;;;;;;5.07;2.75;;;;;;;21.23;71.11;100822.72;5093183;28;20083;-72
2022/06/09 03:12:46;;;;;;;4.82;3.17;;;;;;;21.32;71.14;100822.66;5095187;28;20130;-71
2022/06/09 03:15:17;;;;;;;5.65;2.67;;;;;;;21.37;70.96;100823.31;5111097;28;20062;-71
2022/06/09 03:17:44;;;;;;;7.40;3.47;;;;;;;21.26;70.97;100827.69;5117231;28;20043;-71
2022/06/09 03:20:15;;;;;;;6.20;3.60;;;;;;;21.22;71.06;100832.41;5119452;28;20043;-70
2022/06/09 03:22:43;;;;;;;5.65;3.53;;;;;;;21.12;71.47;100824.31;5119760;28;20057;-71
2022/06/09 03:25:10;;;;;;;8.02;3.70;;;;;;;21.22;71.45;100833.25;5100913;28;20029;-72
2022/06/09 03:27:36;;;;;;;7.20;3.53;;;;;;;21.21;71.12;100813.72;5115528;28;20029;-71
2022/06/09 03:30:04;;;;;;;5.93;3.67;;;;;;;21.22;70.82;100806.84;5099656;28;20028;-70
2022/06/09 03:32:31;;;;;;;6.20;2.80;;;;;;;21.26;70.64;100816.34;5099757;28;20048;-72
2022/06/09 03:34:58;;;;;;;7.68;3.28;;;;;;;21.08;70.90;100803.47;5098838;28;20047;-72
2022/06/09 03:37:25;;;;;;;5.95;4.07;;;;;;;21.20;71.02;100826.28;5098475;28;20051;-71
2022/06/09 03:39:52;;;;;;;8.85;3.83;;;;;;;21.05;70.72;100813.50;5099049;28;20036;-72
2022/06/09 03:42:19;;;;;;;8.23;3.63;;;;;;;20.90;71.19;100805.59;5098578;28;20048;-72
2022/06/09 03:44:46;;;;;;;7.72;4.03;;;;;;;20.96;70.80;100813.56;5098680;28;20051;-72
2022/06/09 03:47:13;;;;;;;9.15;4.00;;;;;;;20.88;71.22;100803.09;5099198;28;20080;-71
2022/06/09 03:49:40;;;;;;;7.25;3.60;;;;;;;21.06;70.86;100824.53;5098021;28;20055;-71
2022/06/09 03:52:08;;;;;;;8.55;3.80;;;;;;;21.09;70.97;100822.16;5097812;28;20053;-71
2022/06/09 03:54:36;;;;;;;6.47;3.35;;;;;;;21.12;71.06;100818.63;5097914;28;20060;-71
2022/06/09 03:57:04;;;;;;;12.65;4.28;;;;;;;21.22;71.02;100815.38;5098276;28;20111;-71
2022/06/09 03:59:31;;;;;;;8.73;4.10;;;;;;;21.26;70.73;100796.47;5098555;28;20032;-73
2022/06/09 04:01:58;;;;;;;6.65;3.53;;;;;;;21.35;70.42;100796.44;5098490;28;20040;-70
2022/06/09 04:04:25;;;;;;;8.27;3.85;;;;;;;21.50;70.34;100810.84;5097475;28;20059;-71
2022/06/09 04:06:53;;;;;;;8.75;4.40;;;;;;;21.50;69.84;100805.16;5095468;28;20048;-71
2022/06/09 04:09:21;;;;;;;7.65;3.15;;;;;;;21.55;69.93;100811.78;5106516;28;20043;-72
2022/06/09 04:11:47;;;;;;;6.50;3.78;;;;;;;21.48;69.84;100806.69;5109498;28;20051;-72
2022/06/09 04:14:14;;;;;;;7.70;3.53;;;;;;;21.39;69.56;100818.09;5093845;28;20076;-71
2022/06/09 04:16:44;;;;;;;6.10;3.80;;;;;;;21.09;70.09;100771.03;5089845;28;20048;-72
2022/06/09 04:19:14;;;;;;;9.75;4.20;;;;;;;21.38;70.15;100822.13;5074606;28;20509;-71
2022/06/09 04:21:42;;;;;;;6.78;4.10;;;;;;;21.34;69.86;100821.16;5073482;28;20131;-71
2022/06/09 04:24:09;;;;;;;9.27;5.25;;;;;;;21.19;69.94;100811.22;5094340;28;20040;-71
2022/06/09 04:26:39;;;;;;;8.73;4.28;;;;;;;21.34;70.45;100803.28;5098870;28;20049;-72
2022/06/09 04:29:08;;;;;;;7.75;4.10;;;;;;;21.24;69.87;100796.81;5098808;28;20053;-71
2022/06/09 04:31:35;;;;;;;6.78;3.63;;;;;;;21.39;69.70;100820.94;5098741;28;20041;-71
2022/06/09 04:34:02;;;;;;;9.63;4.25;;;;;;;21.24;69.80;100790.31;5105296;28;20053;-71
2022/06/09 04:36:29;;;;;;;8.45;4.25;;;;;;;21.22;69.30;100784.97;5099835;28;20029;-71
2022/06/09 04:39:00;;;;;;;12.00;5.00;;;;;;;21.49;69.39;100823.34;5098507;28;20035;-71
2022/06/09 04:41:27;;;;;;;8.43;4.82;;;;;;;21.44;69.30;100817.91;5098940;28;20028;-70
2022/06/09 04:43:54;;;;;;;8.30;4.78;;;;;;;21.46;69.56;100809.84;5098772;28;20080;-71
2022/06/09 04:46:23;;;;;;;8.57;4.60;;;;;;;21.57;69.07;100815.09;5098336;28;20104;-72
2022/06/09 04:48:50;;;;;;;9.10;4.40;;;;;;;21.50;69.09;100810.84;5098734;28;20033;-71
2022/06/09 04:51:19;;;;;;;8.80;4.57;;;;;;;21.53;68.96;100809.28;5098923;28;20052;-72
2022/06/09 04:53:48;;;;;;;8.18;4.70;;;;;;;21.54;69.14;100819.50;5098928;28;20040;-71
2022/06/09 04:56:17;;;;;;;8.30;3.88;;;;;;;21.42;69.39;100820.25;5098896;28;20024;-71
2022/06/09 04:58:44;;;;;;;9.57;5.32;;;;;;;21.28;69.39;100816.84;5098226;28;20047;-71
2022/06/09 05:01:16;;;;;;;8.27;4.80;;;;;;;21.17;69.71;100807.91;5098462;28;20024;-71
2022/06/09 05:03:44;;;;;;;8.00;5.15;;;;;;;21.25;69.30;100826.06;5098688;28;20024;-71
2022/06/09 05:06:11;;;;;;;7.78;4.30;;;;;;;21.20;69.44;100835.63;5098290;28;20044;-71
2022/06/09 05:08:40;;;;;;;9.18;4.57;;;;;;;21.10;69.42;100812.47;5099106;28;20033;-71
2022/06/09 05:11:07;;;;;;;8.25;4.65;;;;;;;21.25;69.55;100835.41;5098304;28;20047;-71
2022/06/09 05:13:35;;;;;;;10.63;4.20;;;;;;;21.08;69.28;100817.66;5097746;28;20052;-72
2022/06/09 05:16:03;;;;;;;11.40;5.15;;;;;;;21.13;69.82;100823.13;5097893;28;20044;-72
2022/06/09 05:18:31;;;;;;;8.48;4.78;;;;;;;21.01;69.58;100824.72;5097888;28;20044;-71
2022/06/09 05:20:59;;;;;;;10.43;5.22;;;;;;;20.93;69.64;100819.13;5097379;28;20058;-71
2022/06/09 05:23:28;;;;;;;8.07;4.72;;;;;;;20.99;69.69;100834.75;5096773;28;20052;-72
2022/06/09 05:25:59;;;;;;;7.68;4.53;;;;;;;20.80;70.09;100806.84;5096917;28;20483;-70
2022/06/09 05:28:27;;;;;;;9.13;5.20;;;;;;;20.93;70.25;100827.63;5096084;28;20060;-71
2022/06/09 05:30:55;;;;;;;17.05;5.18;;;;;;;20.96;69.97;100830.63;5095716;28;20055;-71
2022/06/09 05:33:22;;;;;;;7.80;4.47;;;;;;;20.98;70.28;100839.59;5092784;28;20048;-71
2022/06/09 05:35:49;;;;;;;13.98;5.00;;;;;;;21.01;70.01;100835.25;5112035;28;20055;-71
2022/06/09 05:46:43;;;;;;;7.97;3.75;;;;;;;21.01;69.83;100823.88;5098546;28;20045;-70
2022/06/09 05:49:17;;;;;;;8.75;4.80;;;;;;;21.11;70.30;100853.88;5091735;28;20056;-70
2022/06/09 05:51:45;;;;;;;10.85;4.75;;;;;;;21.04;69.97;100843.91;5090747;28;20085;-71
2022/06/09 05:54:12;;;;;;;6.57;4.18;;;;;;;21.09;70.26;100857.06;5087438;28;20083;-70
2022/06/09 05:56:39;;;;;;;7.38;4.07;;;;;;;21.11;70.10;100836.84;5076028;28;20083;-72
2022/06/09 05:59:06;;;;;;;10.20;4.90;;;;;;;21.27;69.99;100861.47;5076610;28;20136;-70
2022/06/09 06:01:33;;;;;;;8.05;4.28;;;;;;;21.24;69.89;100841.44;5076366;28;20498;-71
2022/06/09 06:04:04;;;;;;;7.63;4.47;;;;;;;21.39;69.54;100866.41;5076453;28;20098;-71
2022/06/09 06:06:34;;;;;;;8.27;4.63;;;;;;;21.39;69.34;100877.75;5091675;28;20052;-72
2022/06/09 06:09:16;;;;;;;6.20;4.45;;;;;;;21.40;69.26;100868.09;5076065;28;20051;-71
2022/06/09 06:11:45;;;;;;;6.15;4.25;;;;;;;21.25;69.26;100865.81;5075943;28;20095;-71
2022/06/09 06:14:12;;;;;;;5.80;3.65;;;;;;;20.97;69.41;100842.78;5075972;28;20087;-69
2022/06/09 06:16:39;;;;;;;9.32;4.78;;;;;;;20.99;69.82;100861.16;5075117;28;20132;-72
2022/06/09 06:19:17;;;;;;;7.25;4.65;;;;;;;21.11;69.61;100883.13;5075717;28;20498;-71
2022/06/09 06:21:45;;;;;;;6.95;4.30;;;;;;;21.09;69.83;100884.63;5075741;28;20507;-71
2022/06/09 06:24:14;;;;;;;7.28;4.00;;;;;;;21.13;69.90;100875.09;5075920;28;20048;-72
2022/06/09 06:26:41;;;;;;;6.30;3.78;;;;;;;21.17;69.52;100884.59;5075712;28;20123;-71
2022/06/09 06:29:14;;;;;;;7.00;4.15;;;;;;;21.19;69.52;100878.53;5074855;28;20060;-71
2022/06/09 06:31:43;;;;;;;7.95;3.72;;;;;;;21.29;69.25;100884.66;5075523;28;20110;-71
2022/06/09 06:34:11;;;;;;;7.10;4.28;;;;;;;21.34;69.28;100886.50;5082231;28;20514;-72
2022/06/09 06:36:38;;;;;;;8.80;4.60;;;;;;;21.29;69.12;100878.13;5075415;28;20579;-71
2022/06/09 06:39:05;;;;;;;9.65;3.72;;;;;;;21.44;68.89;100885.28;5074387;28;20131;-71
2022/06/09 06:41:32;;;;;;;7.63;4.43;;;;;;;21.45;68.63;100876.38;5074117;28;20159;-71
2022/06/09 06:43:59;;;;;;;5.80;3.33;;;;;;;21.73;68.54;100895.72;5081774;28;20403;-72
2022/06/09 06:46:27;;;;;;;5.90;3.65;;;;;;;21.67;68.04;100878.03;5095849;28;20052;-72
2022/06/09 06:48:55;;;;;;;7.90;4.47;;;;;;;21.66;67.77;100870.69;5095594;28;20577;-71
2022/06/09 06:51:23;;;;;;;15.32;5.72;;;;;;;21.92;67.38;100886.69;5076674;28;20055;-71
2022/06/09 06:53:50;;;;;;;8.20;4.88;;;;;;;21.78;67.32;100884.16;5074981;28;20088;-72
2022/06/09 06:56:17;;;;;;;6.30;4.20;;;;;;;21.80;67.24;100898.00;5074941;28;20095;-71
2022/06/09 06:58:44;;;;;;;10.02;5.43;;;;;;;21.81;67.71;100899.66;5073731;28;20057;-72
2022/06/09 07:01:11;;;;;;;7.35;5.07;;;;;;;21.74;67.31;100877.47;5074946;28;20098;-71
2022/06/09 07:03:38;;;;;;;6.78;4.30;;;;;;;21.79;67.18;100897.16;5074966;28;20048;-73
2022/06/09 07:06:08;;;;;;;4.78;2.95;;;;;;;21.88;66.78;100895.09;5075147;28;20049;-70
2022/06/09 07:08:35;;;;;;;5.70;3.40;;;;;;;21.95;66.73;100912.41;5078579;28;20048;-71
2022/06/09 07:11:04;;;;;;;6.38;3.22;;;;;;;21.97;66.61;100910.03;5095427;28;20048;-71
2022/06/09 07:13:31;;;;;;;7.75;4.30;;;;;;;21.88;66.57;100919.81;5095443;28;20151;-72
2022/06/09 07:15:58;;;;;;;6.00;3.78;;;;;;;21.84;66.76;100916.00;5095502;28;20131;-72
2022/06/09 07:18:28;;;;;;;6.88;3.88;;;;;;;21.80;66.65;100898.00;5095407;28;20130;-70
2022/06/09 07:20:56;;;;;;;8.00;4.63;;;;;;;21.94;66.56;100919.25;5095384;28;20127;-71
2022/06/09 07:23:26;;;;;;;10.25;4.45;;;;;;;21.75;66.78;100873.47;5092505;28;20059;-71
2022/06/09 07:25:54;;;;;;;6.78;4.53;;;;;;;22.10;66.47;100924.31;5074584;28;20052;-71
2022/06/09 07:28:21;;;;;;;7.28;5.03;;;;;;;22.12;65.95;100927.63;5074291;28;20048;-70
2022/06/09 07:30:49;;;;;;;9.40;5.78;;;;;;;22.27;65.82;100927.00;5074415;28;20052;-72
2022/06/09 07:33:16;;;;;;;8.48;5.53;;;;;;;22.20;65.40;100904.00;5075378;28;20132;-71
2022/06/09 07:35:43;;;;;;;6.45;4.82;;;;;;;22.44;65.50;100943.06;5094573;28;20093;-71
2022/06/09 07:38:11;;;;;;;5.93;4.40;;;;;;;22.29;65.34;100910.44;5094637;28;20135;-71
2022/06/09 07:40:40;;;;;;;8.13;5.05;;;;;;;22.44;65.12;100938.19;5093585;28;20072;-71
2022/06/09 07:43:09;;;;;;;8.45;6.15;;;;;;;22.39;65.55;100929.91;5094777;28;20090;-70
2022/06/09 07:45:40;;;;;;;7.95;5.45;;;;;;;22.40;64.97;100910.81;5094430;28;20044;-71
2022/06/09 07:48:08;;;;;;;9.85;6.13;;;;;;;22.58;65.22;100943.56;5094246;28;20048;-71
2022/06/09 07:50:49;;;;;;;11.60;5.82;;;;;;;22.53;64.65;100901.13;5094577;28;20056;-71
2022/06/09 07:53:18;;;;;;;10.38;5.93;;;;;;;22.83;64.71;100941.56;5094370;28;20533;-71
2022/06/09 07:55:45;;;;;;;8.97;5.90;;;;;;;22.79;64.64;100934.09;5094357;28;20151;-72
2022/06/09 07:58:12;;;;;;;8.20;5.00;;;;;;;22.91;64.52;100932.09;5093235;28;20135;-72
2022/06/09 08:00:40;;;;;;;7.15;4.50;;;;;;;22.88;63.71;100949.06;5094033;28;20048;-72
2022/06/09 08:03:07;;;;;;;4.97;3.45;;;;;;;22.85;63.83;100929.84;5094495;28;20048;-72
2022/06/09 08:05:35;;;;;;;6.78;4.25;;;;;;;22.88;63.87;100938.50;5093927;28;20097;-71
2022/06/09 08:08:02;;;;;;;8.50;3.00;;;;;;;22.87;64.11;100936.84;5094070;28;20052;-72
2022/06/09 08:10:30;;;;;;;8.27;3.92;;;;;;;22.91;64.08;100936.97;5093828;28;20138;-71
2022/06/09 08:13:00;;;;;;;4.93;3.40;;;;;;;22.93;64.04;100941.13;5094167;28;20047;-71
2022/06/09 08:15:33;;;;;;;8.48;3.88;;;;;;;23.06;63.92;100944.00;5092973;28;20072;-71
2022/06/09 08:18:00;;;;;;;4.45;2.85;;;;;;;23.15;63.91;100942.69;5093781;28;20518;-71
2022/06/09 08:20:31;;;;;;;11.40;3.25;;;;;;;23.21;63.05;100931.06;5093755;28;20581;-72
2022/06/09 08:23:22;;;;;;;8.90;4.57;;;;;;;23.42;63.34;100943.16;5092614;28;20050;-71
2022/06/09 08:25:51;;;;;;;5.20;3.60;;;;;;;23.41;63.19;100944.34;5093609;28;20123;-72
2022/06/09 08:28:18;;;;;;;6.93;3.00;;;;;;;23.41;62.60;100950.03;5093701;28;20150;-71
2022/06/09 08:30:47;;;;;;;4.47;2.85;;;;;;;23.42;62.46;100951.72;5093798;28;20143;-71
2022/06/09 08:33:14;;;;;;;10.00;2.75;;;;;;;23.33;62.96;100948.97;5083848;28;20083;-71
2022/06/09 08:35:42;;;;;;;4.28;2.42;;;;;;;23.38;62.98;100945.03;5073226;28;20135;-70
2022/06/09 08:38:08;;;;;;;3.35;2.25;;;;;;;23.59;62.18;100944.88;5074019;28;20052;-71
2022/06/09 08:40:52;;;;;;;4.18;3.08;;;;;;;23.70;61.89;100940.41;5072575;28;20052;-71
2022/06/09 08:43:38;;;;;;;4.22;3.20;;;;;;;23.74;62.12;100943.34;5073486;28;20460;-71
2022/06/09 08:46:39;;;;;;;7.25;4.53;;;;;;;23.80;61.44;100916.25;5073157;28;20048;-71
2022/06/09 08:49:26;;;;;;;5.15;3.88;;;;;;;23.95;60.99;100921.16;5072911;28;20193;-70
2022/06/09 08:51:56;;;;;;;6.18;3.58;;;;;;;24.03;61.12;100927.91;5073225;28;20086;-72
2022/06/09 08:54:32;;;;;;;5.10;2.88;;;;;;;24.04;60.99;100907.59;5073157;28;20079;-72
2022/06/09 08:57:04;;;;;;;5.65;3.08;;;;;;;24.27;60.47;100927.81;5073127;28;20477;-71
2022/06/09 08:59:37;;;;;;;5.10;3.20;;;;;;;24.42;60.33;100934.78;5073215;28;20082;-71
2022/06/09 09:02:25;;;;;;;6.10;3.17;;;;;;;24.50;59.99;100938.66;5073108;28;20102;-72
2022/06/09 09:05:03;;;;;;;5.85;3.88;;;;;;;24.56;60.37;100929.44;5072816;28;20056;-73
2022/06/09 09:07:33;;;;;;;4.97;3.38;;;;;;;24.69;59.83;100909.38;5073252;28;20045;-72
2022/06/09 09:10:19;;;;;;;5.78;4.35;;;;;;;25.05;59.63;100931.09;5073027;28;20053;-73
2022/06/09 09:12:59;;;;;;;5.03;3.30;;;;;;;25.36;58.71;100929.44;5071857;28;20053;-71
2022/06/09 09:15:42;;;;;;;4.00;2.80;;;;;;;25.49;58.82;100934.66;5072782;28;20486;-71
2022/06/09 09:18:12;;;;;;;5.68;3.20;;;;;;;25.76;58.28;100932.81;5071595;28;20487;-71
2022/06/09 09:20:51;;;;;;;5.32;2.88;;;;;;;26.26;57.63;100918.78;5072793;28;20562;-72
2022/06/09 09:23:26;;;;;;;4.75;3.25;;;;;;;26.36;56.48;100903.84;5076024;28;20049;-72
2022/06/09 09:26:05;;;;;;;3.20;2.25;;;;;;;26.87;55.90;100917.03;5075515;28;20068;-72
2022/06/09 09:29:11;;;;;;;4.82;2.53;;;;;;;27.08;55.77;100917.41;5075591;28;20395;-70
2022/06/09 09:31:50;;;;;;;4.30;2.90;;;;;;;27.43;55.29;100904.88;5074204;28;20086;-71
2022/06/09 09:34:21;;;;;;;7.00;2.58;;;;;;;27.81;54.39;100909.53;5075819;28;20400;-71
2022/06/09 09:36:54;;;;;;;3.85;2.60;;;;;;;28.21;53.73;100915.75;5075850;28;20040;-72
2022/06/09 09:39:40;;;;;;;3.47;2.40;;;;;;;28.54;52.82;100909.97;5076424;28;20060;-70
2022/06/09 09:42:12;;;;;;;3.67;2.22;;;;;;;28.87;52.62;100914.00;5075522;28;20573;-71
2022/06/09 09:44:39;;;;;;;5.13;2.70;;;;;;;29.13;51.97;100915.03;5072704;28;20084;-71
2022/06/09 09:47:07;;;;;;;4.10;2.90;;;;;;;29.16;51.23;100902.75;5072687;28;20051;-71
2022/06/09 09:49:48;;;;;;;4.53;2.17;;;;;;;29.37;50.82;100902.91;5072434;28;20052;-70
2022/06/09 09:52:46;;;;;;;3.60;2.92;;;;;;;29.50;50.94;100900.50;5072687;28;20139;-72
2022/06/09 09:55:31;;;;;;;5.55;3.17;;;;;;;29.65;50.34;100896.53;5070262;28;20079;-72
2022/06/09 09:58:18;;;;;;;4.10;2.60;;;;;;;29.67;49.97;100893.22;5072886;28;20093;-72
2022/06/09 10:00:48;;;;;;;5.47;1.88;;;;;;;29.79;49.44;100892.88;5065363;28;20048;-71
2022/06/09 10:09:36;;;;;;;3.13;1.60;;;;;;;30.13;48.67;100872.44;5091097;28;20102;-72
2022/06/09 10:12:16;;;;;;;2.63;1.80;;;;;;;30.18;48.76;100860.56;5090949;28;20474;-71
2022/06/09 10:15:09;;;;;;;3.72;2.30;;;;;;;30.44;48.51;100879.53;5077752;28;20505;-71
2022/06/09 10:18:03;;;;;;;2.60;2.30;;;;;;;30.53;48.37;100876.25;5071988;28;20092;-70
2022/06/09 10:20:50;;;;;;;3.22;2.55;;;;;;;30.42;48.03;100870.47;5075472;28;20047;-71
2022/06/09 10:23:25;;;;;;;3.65;2.20;;;;;;;30.61;47.48;100883.69;5075939;28;20131;-72
2022/06/09 10:26:00;;;;;;;2.90;1.92;;;;;;;30.75;46.76;100877.09;5075806;28;20048;-71
2022/06/09 10:28:56;;;;;;;4.65;2.35;;;;;;;30.71;47.09;100868.47;5074339;28;20076;-71
2022/06/09 10:31:35;;;;;;;4.85;2.30;;;;;;;30.69;47.13;100862.28;5076212;28;20454;-71
2022/06/09 10:34:26;;;;;;;6.72;3.13;;;;;;;30.65;47.26;100864.34;5091356;28;20098;-73
2022/06/09 10:37:27;;;;;;;4.68;3.28;;;;;;;30.54;47.35;100872.16;5075215;28;20139;-71
2022/06/09 10:40:24;;;;;;;3.97;2.72;;;;;;;30.59;47.08;100865.97;5073152;28;20083;-72
2022/06/09 10:42:57;;;;;;;5.75;2.55;;;;;;;30.76;46.00;100862.31;5075193;28;20127;-71
2022/06/09 10:45:42;;;;;;;3.20;2.00;;;;;;;30.64;46.21;100871.34;5075523;28;20469;-71
2022/06/09 10:57:08;;;;;;;6.47;1.90;;;;;;;31.04;45.76;100834.69;5095498;28;20095;-72
2022/06/09 10:59:38;;;;;;;2.95;1.88;;;;;;;30.98;45.29;100842.13;5095646;28;20082;-72
2022/06/09 11:02:18;;;;;;;2.92;2.25;;;;;;;30.88;45.42;100847.47;5095552;28;20080;-71
2022/06/09 11:04:46;;;;;;;2.63;1.70;;;;;;;30.70;45.61;100837.97;5094180;28;20059;-72
2022/06/09 11:07:51;;;;;;;2.70;2.03;;;;;;;30.81;45.87;100844.59;5095244;28;20048;-72
2022/06/09 11:10:50;;;;;;;6.05;2.30;;;;;;;30.97;45.78;100847.03;5095252;28;20131;-71
2022/06/09 11:13:32;;;;;;;4.03;1.90;;;;;;;31.01;45.24;100842.13;5031207;28;20511;-71
2022/06/09 11:16:19;;;;;;;3.03;1.75;;;;;;;30.94;45.34;100816.19;5074590;28;20051;-71
2022/06/09 11:19:04;;;;;;;3.00;1.98;;;;;;;30.92;45.71;100833.88;5074857;28;20465;-71
2022/06/09 11:21:45;;;;;;;3.55;2.30;;;;;;;30.97;44.94;100832.63;5075083;28;20087;-71
2022/06/09 11:24:30;;;;;;;2.45;1.88;;;;;;;31.14;44.54;100836.72;5074592;28;20099;-71
2022/06/09 11:27:20;;;;;;;4.65;2.75;;;;;;;31.11;44.93;100826.00;5074378;28;20123;-71
2022/06/09 11:30:15;;;;;;;4.35;2.65;;;;;;;31.35;44.74;100841.66;5073888;28;20092;-71
2022/06/09 11:32:58;;;;;;;4.38;2.33;;;;;;;31.71;44.73;100839.47;5058842;28;20502;-71
2022/06/09 11:35:25;;;;;;;3.75;2.63;;;;;;;31.76;43.62;100844.81;5074446;28;20049;-71
2022/06/09 11:38:04;;;;;;;3.15;2.55;;;;;;;31.78;44.55;100838.63;5074043;28;20466;-71
2022/06/09 11:41:08;;;;;;;5.15;2.58;;;;;;;32.02;44.28;100829.03;5074266;28;20052;-71
2022/06/09 11:44:04;;;;;;;3.08;2.03;;;;;;;32.20;43.89;100840.47;5079976;28;20048;-71
2022/06/09 11:46:34;;;;;;;3.42;2.10;;;;;;;32.19;43.25;100814.91;5094735;28;20105;-71
2022/06/09 11:49:06;;;;;;;5.43;2.35;;;;;;;32.04;43.74;100825.72;5093857;28;20131;-71
2022/06/09 11:51:34;;;;;;;3.75;2.42;;;;;;;31.93;44.18;100801.84;5094571;28;20134;-71
2022/06/09 11:54:06;;;;;;;3.42;2.00;;;;;;;32.22;43.84;100814.06;5094393;28;20135;-71
2022/06/09 11:56:36;;;;;;;6.07;2.13;;;;;;;32.29;44.21;100829.25;5092478;28;20072;-71
2022/06/09 11:59:04;;;;;;;5.35;3.03;;;;;;;32.23;43.79;100825.16;5094072;28;20048;-71
2022/06/09 12:01:41;;;;;;;5.50;2.83;;;;;;;32.51;43.69;100826.25;5094146;28;20075;-71
2022/06/09 12:04:39;;;;;;;;;;;;;;;32.15;44.90;100814.91;5094584;28;20056;-72
2022/06/09 12:07:18;;;;;;;4.20;3.40;;;;;;;32.61;43.07;100805.09;5084051;28;19963;-71
2022/06/09 12:10:07;;;;;;;4.53;4.10;;;;;;;33.06;42.35;100810.91;5094357;28;20071;-71
2022/06/09 12:12:33;;;;;;;3.63;2.38;;;;;;;33.95;40.77;100818.53;5090547;28;20066;-71
2022/06/09 12:15:42;;;;;;;5.38;2.58;;;;;;;34.86;39.34;100805.09;5073471;28;20087;-71